sensor_id;sensor_type;location;lat;lon;timestamp;pressure;altitude;pressure_sealevel;temperature;humidity
69214;BME280;56325;47.030;18.518;2023-06-10T00:02:31;99992.03;;;19.39;92.83
69214;BME280;56325;47.030;18.518;2023-06-10T00:05:06;99989.47;;;19.41;92.69
69214;BME280;56325;47.030;18.518;2023-06-10T00:07:44;99989.25;;;19.39;92.58
69214;BME280;56325;47.030;18.518;2023-06-10T00:10:19;99984.56;;;19.28;93.64
69214;BME280;56325;47.030;18.518;2023-06-10T00:12:54;99987.03;;;19.32;93.36
69214;BME280;56325;47.030;18.518;2023-06-10T00:15:29;99994.25;;;19.22;94.02
69214;BME280;56325;47.030;18.518;2023-06-10T00:18:04;99993.09;;;19.12;95.07
69214;BME280;56325;47.030;18.518;2023-06-10T00:20:39;99995.59;;;19.15;94.89
69214;BME280;56325;47.030;18.518;2023-06-10T00:23:15;99995.75;;;19.04;95.61
69214;BME280;56325;47.030;18.518;2023-06-10T00:25:50;99990.94;;;18.80;97.15
69214;BME280;56325;47.030;18.518;2023-06-10T00:28:25;99993.13;;;18.87;96.62
69214;BME280;56325;47.030;18.518;2023-06-10T00:31:01;99991.63;;;18.86;96.92
69214;BME280;56325;47.030;18.518;2023-06-10T00:33:37;99996.22;;;18.84;96.73
69214;BME280;56325;47.030;18.518;2023-06-10T00:36:12;99984.91;;;18.76;96.93
69214;BME280;56325;47.030;18.518;2023-06-10T00:38:47;99995.41;;;18.89;96.80
69214;BME280;56325;47.030;18.518;2023-06-10T00:41:22;99995.81;;;18.74;96.96
69214;BME280;56325;47.030;18.518;2023-06-10T00:43:57;99987.84;;;18.84;97.05
69214;BME280;56325;47.030;18.518;2023-06-10T00:46:31;99988.16;;;18.80;96.34
69214;BME280;56325;47.030;18.518;2023-06-10T00:49:07;99985.22;;;18.67;97.38
69214;BME280;56325;47.030;18.518;2023-06-10T00:51:42;99986.13;;;18.81;96.98
69214;BME280;56325;47.030;18.518;2023-06-10T00:54:18;99989.94;;;19.02;95.44
69214;BME280;56325;47.030;18.518;2023-06-10T00:56:53;99990.47;;;19.01;95.10
69214;BME280;56325;47.030;18.518;2023-06-10T00:59:29;99995.22;;;19.06;94.98
69214;BME280;56325;47.030;18.518;2023-06-10T01:02:05;99988.06;;;19.10;94.28
69214;BME280;56325;47.030;18.518;2023-06-10T01:04:40;99995.53;;;19.21;93.91
69214;BME280;56325;47.030;18.518;2023-06-10T01:07:21;99991.69;;;19.24;93.50
69214;BME280;56325;47.030;18.518;2023-06-10T01:10:02;99994.72;;;19.26;93.30
69214;BME280;56325;47.030;18.518;2023-06-10T01:12:41;99981.94;;;19.36;92.41
69214;BME280;56325;47.030;18.518;2023-06-10T01:15:22;99970.37;;;19.26;92.17
69214;BME280;56325;47.030;18.518;2023-06-10T01:17:58;99972.78;;;19.17;92.50
69214;BME280;56325;47.030;18.518;2023-06-10T01:20:36;99980.84;;;19.20;92.35
69214;BME280;56325;47.030;18.518;2023-06-10T01:23:15;99980.44;;;19.11;92.44
69214;BME280;56325;47.030;18.518;2023-06-10T01:25:54;99975.72;;;19.06;92.88
69214;BME280;56325;47.030;18.518;2023-06-10T01:28:38;99978.94;;;19.10;91.85
69214;BME280;56325;47.030;18.518;2023-06-10T01:31:18;99967.34;;;19.06;92.81
69214;BME280;56325;47.030;18.518;2023-06-10T01:33:56;99973.53;;;18.98;92.91
69214;BME280;56325;47.030;18.518;2023-06-10T01:36:31;99970.63;;;18.85;93.95
69214;BME280;56325;47.030;18.518;2023-06-10T01:39:08;99967.66;;;18.78;93.67
69214;BME280;56325;47.030;18.518;2023-06-10T01:41:47;99970.37;;;18.83;93.53
69214;BME280;56325;47.030;18.518;2023-06-10T01:44:23;99971.50;;;18.99;92.82
69214;BME280;56325;47.030;18.518;2023-06-10T01:46:58;99962.84;;;19.03;92.65
69214;BME280;56325;47.030;18.518;2023-06-10T01:49:33;99976.31;;;18.98;91.92
69214;BME280;56325;47.030;18.518;2023-06-10T01:52:07;99964.34;;;19.04;91.52
69214;BME280;56325;47.030;18.518;2023-06-10T01:54:44;99966.44;;;18.97;92.04
69214;BME280;56325;47.030;18.518;2023-06-10T01:57:18;99960.94;;;19.11;91.69
69214;BME280;56325;47.030;18.518;2023-06-10T01:59:53;99955.81;;;19.15;91.49
69214;BME280;56325;47.030;18.518;2023-06-10T02:02:27;99960.81;;;19.22;91.04
69214;BME280;56325;47.030;18.518;2023-06-10T02:05:02;99957.50;;;19.42;89.02
69214;BME280;56325;47.030;18.518;2023-06-10T02:07:38;99959.06;;;19.19;89.72
69214;BME280;56325;47.030;18.518;2023-06-10T02:10:14;99965.16;;;18.98;90.99
69214;BME280;56325;47.030;18.518;2023-06-10T02:12:49;99968.66;;;18.80;92.04
69214;BME280;56325;47.030;18.518;2023-06-10T02:15:24;99971.53;;;18.69;93.55
69214;BME280;56325;47.030;18.518;2023-06-10T02:17:59;99971.78;;;18.71;93.72
69214;BME280;56325;47.030;18.518;2023-06-10T02:20:33;99973.97;;;18.48;94.16
69214;BME280;56325;47.030;18.518;2023-06-10T02:23:08;99974.62;;;18.60;93.92
69214;BME280;56325;47.030;18.518;2023-06-10T02:25:44;99976.53;;;18.76;92.91
69214;BME280;56325;47.030;18.518;2023-06-10T02:28:20;99973.06;;;18.70;93.47
69214;BME280;56325;47.030;18.518;2023-06-10T02:30:55;99973.62;;;18.87;92.44
69214;BME280;56325;47.030;18.518;2023-06-10T02:33:31;99969.63;;;18.83;92.28
69214;BME280;56325;47.030;18.518;2023-06-10T02:36:07;99973.41;;;18.85;92.44
69214;BME280;56325;47.030;18.518;2023-06-10T02:38:41;99969.06;;;18.90;91.81
69214;BME280;56325;47.030;18.518;2023-06-10T02:41:18;99969.41;;;18.81;92.82
69214;BME280;56325;47.030;18.518;2023-06-10T02:43:53;99971.37;;;18.61;93.14
69214;BME280;56325;47.030;18.518;2023-06-10T02:46:28;99973.13;;;18.59;93.75
69214;BME280;56325;47.030;18.518;2023-06-10T02:49:04;99969.75;;;18.72;92.99
69214;BME280;56325;47.030;18.518;2023-06-10T02:51:39;99976.31;;;18.98;91.20
69214;BME280;56325;47.030;18.518;2023-06-10T02:54:14;99987.00;;;18.94;90.73
69214;BME280;56325;47.030;18.518;2023-06-10T02:56:51;99988.25;;;18.93;91.34
69214;BME280;56325;47.030;18.518;2023-06-10T02:59:29;99996.91;;;18.65;92.81
69214;BME280;56325;47.030;18.518;2023-06-10T03:02:04;99992.50;;;18.76;92.98
69214;BME280;56325;47.030;18.518;2023-06-10T03:04:41;99995.97;;;18.52;94.37
69214;BME280;56325;47.030;18.518;2023-06-10T03:07:16;100000.22;;;18.58;93.24
69214;BME280;56325;47.030;18.518;2023-06-10T03:09:54;100001.16;;;18.37;93.56
69214;BME280;56325;47.030;18.518;2023-06-10T03:12:30;99993.41;;;18.24;93.84
69214;BME280;56325;47.030;18.518;2023-06-10T03:15:05;100001.41;;;18.09;95.92
69214;BME280;56325;47.030;18.518;2023-06-10T03:17:41;100005.41;;;18.13;95.30
69214;BME280;56325;47.030;18.518;2023-06-10T03:20:16;100004.75;;;18.31;94.80
69214;BME280;56325;47.030;18.518;2023-06-10T03:22:51;100008.66;;;18.17;94.37
69214;BME280;56325;47.030;18.518;2023-06-10T03:25:25;100010.06;;;17.99;95.20
69214;BME280;56325;47.030;18.518;2023-06-10T03:28:03;100003.22;;;18.00;95.49
69214;BME280;56325;47.030;18.518;2023-06-10T03:30:38;100010.31;;;17.96;96.05
69214;BME280;56325;47.030;18.518;2023-06-10T03:33:13;100011.59;;;17.95;95.31
69214;BME280;56325;47.030;18.518;2023-06-10T03:35:48;99998.66;;;18.03;95.03
69214;BME280;56325;47.030;18.518;2023-06-10T03:38:23;100001.16;;;18.07;94.88
69214;BME280;56325;47.030;18.518;2023-06-10T03:40:58;100003.28;;;17.89;95.60
69214;BME280;56325;47.030;18.518;2023-06-10T03:43:35;100011.34;;;17.93;95.62
69214;BME280;56325;47.030;18.518;2023-06-10T03:46:10;100003.37;;;18.14;94.91
69214;BME280;56325;47.030;18.518;2023-06-10T03:48:44;100011.16;;;18.21;93.92
69214;BME280;56325;47.030;18.518;2023-06-10T03:51:19;100007.28;;;18.29;94.45
69214;BME280;56325;47.030;18.518;2023-06-10T03:53:55;100006.91;;;18.44;93.57
69214;BME280;56325;47.030;18.518;2023-06-10T03:56:30;100014.00;;;18.45;93.36
69214;BME280;56325;47.030;18.518;2023-06-10T03:59:06;100007.50;;;18.67;92.57
69214;BME280;56325;47.030;18.518;2023-06-10T04:01:41;100005.50;;;18.67;91.67
69214;BME280;56325;47.030;18.518;2023-06-10T04:04:17;100007.88;;;18.82;90.21
69214;BME280;56325;47.030;18.518;2023-06-10T04:06:52;100018.03;;;18.80;89.73
69214;BME280;56325;47.030;18.518;2023-06-10T04:09:27;100023.06;;;18.51;91.60
69214;BME280;56325;47.030;18.518;2023-06-10T04:12:02;100017.19;;;18.60;91.23
69214;BME280;56325;47.030;18.518;2023-06-10T04:14:40;100031.06;;;18.30;92.95
69214;BME280;56325;47.030;18.518;2023-06-10T04:17:15;100025.75;;;18.32;92.94
69214;BME280;56325;47.030;18.518;2023-06-10T04:19:51;100023.59;;;18.50;92.79
69214;BME280;56325;47.030;18.518;2023-06-10T04:22:25;100017.72;;;18.53;91.90
69214;BME280;56325;47.030;18.518;2023-06-10T04:25:00;100027.53;;;18.65;91.44
69214;BME280;56325;47.030;18.518;2023-06-10T04:27:35;100027.28;;;18.28;93.05
69214;BME280;56325;47.030;18.518;2023-06-10T04:30:13;100025.91;;;18.46;92.39
69214;BME280;56325;47.030;18.518;2023-06-10T04:32:48;100025.97;;;18.34;93.31
69214;BME280;56325;47.030;18.518;2023-06-10T04:35:23;100019.56;;;18.15;94.38
69214;BME280;56325;47.030;18.518;2023-06-10T04:37:59;100027.97;;;18.40;93.45
69214;BME280;56325;47.030;18.518;2023-06-10T04:40:36;100027.41;;;18.47;93.80
69214;BME280;56325;47.030;18.518;2023-06-10T04:43:11;100022.47;;;18.64;92.94
69214;BME280;56325;47.030;18.518;2023-06-10T04:45:48;100016.75;;;18.51;93.29
69214;BME280;56325;47.030;18.518;2023-06-10T04:48:23;100019.63;;;18.40;93.24
69214;BME280;56325;47.030;18.518;2023-06-10T04:50:58;100014.59;;;18.68;93.07
69214;BME280;56325;47.030;18.518;2023-06-10T04:53:33;100017.63;;;18.70;92.67
69214;BME280;56325;47.030;18.518;2023-06-10T04:56:08;100016.78;;;19.05;90.59
69214;BME280;56325;47.030;18.518;2023-06-10T04:58:42;100016.53;;;19.03;91.80
69214;BME280;56325;47.030;18.518;2023-06-10T05:01:18;100016.06;;;18.99;90.68
69214;BME280;56325;47.030;18.518;2023-06-10T05:03:53;100014.91;;;18.89;90.94
69214;BME280;56325;47.030;18.518;2023-06-10T05:06:27;100015.38;;;18.93;91.11
69214;BME280;56325;47.030;18.518;2023-06-10T05:09:02;100017.88;;;18.96;90.74
69214;BME280;56325;47.030;18.518;2023-06-10T05:11:37;100016.56;;;19.22;90.36
69214;BME280;56325;47.030;18.518;2023-06-10T05:14:11;100021.09;;;19.25;89.43
69214;BME280;56325;47.030;18.518;2023-06-10T05:16:47;100014.53;;;19.22;89.90
69214;BME280;56325;47.030;18.518;2023-06-10T05:19:22;100018.53;;;19.27;89.60
69214;BME280;56325;47.030;18.518;2023-06-10T05:21:57;100018.97;;;19.55;89.16
69214;BME280;56325;47.030;18.518;2023-06-10T05:24:31;100016.66;;;19.59;87.62
69214;BME280;56325;47.030;18.518;2023-06-10T05:27:06;100018.84;;;19.67;88.33
69214;BME280;56325;47.030;18.518;2023-06-10T05:29:41;100019.19;;;19.95;86.40
69214;BME280;56325;47.030;18.518;2023-06-10T05:32:17;100022.44;;;19.99;86.40
69214;BME280;56325;47.030;18.518;2023-06-10T05:34:52;100020.69;;;19.96;86.30
69214;BME280;56325;47.030;18.518;2023-06-10T05:37:27;100015.88;;;19.96;87.02
69214;BME280;56325;47.030;18.518;2023-06-10T05:40:01;100023.25;;;20.13;86.31
69214;BME280;56325;47.030;18.518;2023-06-10T05:42:37;100023.37;;;20.20;87.33
69214;BME280;56325;47.030;18.518;2023-06-10T05:45:12;100016.97;;;20.25;86.18
69214;BME280;56325;47.030;18.518;2023-06-10T05:47:48;100017.00;;;20.07;86.41
69214;BME280;56325;47.030;18.518;2023-06-10T05:50:23;100014.34;;;20.14;85.99
69214;BME280;56325;47.030;18.518;2023-06-10T05:52:58;100016.03;;;20.36;85.22
69214;BME280;56325;47.030;18.518;2023-06-10T05:55:32;100015.56;;;20.51;85.50
69214;BME280;56325;47.030;18.518;2023-06-10T05:58:07;100027.09;;;20.60;84.02
69214;BME280;56325;47.030;18.518;2023-06-10T06:02:53;100026.00;;;21.35;82.86
69214;BME280;56325;47.030;18.518;2023-06-10T06:05:29;100026.00;;;21.35;82.86
69214;BME280;56325;47.030;18.518;2023-06-10T06:08:07;100028.09;;;20.76;83.41
69214;BME280;56325;47.030;18.518;2023-06-10T06:10:42;100035.72;;;20.89;84.51
69214;BME280;56325;47.030;18.518;2023-06-10T06:13:16;100028.62;;;20.75;83.43
69214;BME280;56325;47.030;18.518;2023-06-10T06:15:51;100033.78;;;20.71;84.48
69214;BME280;56325;47.030;18.518;2023-06-10T06:18:27;100045.47;;;20.56;84.36
69214;BME280;56325;47.030;18.518;2023-06-10T06:21:02;100041.34;;;20.25;87.36
69214;BME280;56325;47.030;18.518;2023-06-10T06:23:37;100042.22;;;20.33;86.79
69214;BME280;56325;47.030;18.518;2023-06-10T06:26:12;100038.62;;;20.70;85.88
69214;BME280;56325;47.030;18.518;2023-06-10T06:28:46;100034.38;;;21.22;83.36
69214;BME280;56325;47.030;18.518;2023-06-10T06:31:21;100042.62;;;21.14;82.43
69214;BME280;56325;47.030;18.518;2023-06-10T06:33:57;100037.78;;;21.02;83.27
69214;BME280;56325;47.030;18.518;2023-06-10T06:36:32;100041.09;;;20.87;84.28
69214;BME280;56325;47.030;18.518;2023-06-10T06:39:06;100046.47;;;20.98;83.90
69214;BME280;56325;47.030;18.518;2023-06-10T06:41:41;100039.16;;;20.95;83.60
69214;BME280;56325;47.030;18.518;2023-06-10T06:44:16;100026.91;;;20.98;82.88
69214;BME280;56325;47.030;18.518;2023-06-10T06:46:51;100029.59;;;21.04;82.97
69214;BME280;56325;47.030;18.518;2023-06-10T06:49:27;100034.88;;;21.07;82.10
69214;BME280;56325;47.030;18.518;2023-06-10T06:52:02;100039.00;;;21.33;81.75
69214;BME280;56325;47.030;18.518;2023-06-10T06:54:36;100041.91;;;21.27;81.41
69214;BME280;56325;47.030;18.518;2023-06-10T06:57:11;100039.84;;;21.14;82.16
69214;BME280;56325;47.030;18.518;2023-06-10T06:59:46;100043.41;;;21.41;80.03
69214;BME280;56325;47.030;18.518;2023-06-10T07:50:05;100019.59;;;22.71;74.55
69214;BME280;56325;47.030;18.518;2023-06-10T07:52:40;100019.59;;;22.71;74.55
69214;BME280;56325;47.030;18.518;2023-06-10T07:55:15;100014.41;;;22.12;75.30
69214;BME280;56325;47.030;18.518;2023-06-10T07:57:49;100013.78;;;22.06;77.13
69214;BME280;56325;47.030;18.518;2023-06-10T08:00:24;100020.37;;;21.96;75.92
69214;BME280;56325;47.030;18.518;2023-06-10T08:02:59;100013.75;;;21.72;76.59
69214;BME280;56325;47.030;18.518;2023-06-10T08:05:35;100021.53;;;21.66;77.35
69214;BME280;56325;47.030;18.518;2023-06-10T08:08:10;100021.66;;;21.61;79.27
69214;BME280;56325;47.030;18.518;2023-06-10T08:10:44;100020.53;;;21.77;77.37
69214;BME280;56325;47.030;18.518;2023-06-10T08:13:19;100014.50;;;21.73;78.02
69214;BME280;56325;47.030;18.518;2023-06-10T08:15:54;100013.47;;;21.63;77.65
69214;BME280;56325;47.030;18.518;2023-06-10T08:18:28;100016.34;;;21.70;77.27
69214;BME280;56325;47.030;18.518;2023-06-10T08:21:04;100017.19;;;21.78;77.62
69214;BME280;56325;47.030;18.518;2023-06-10T08:23:39;100014.13;;;21.89;78.22
69214;BME280;56325;47.030;18.518;2023-06-10T08:26:13;100018.97;;;22.02;77.79
69214;BME280;56325;47.030;18.518;2023-06-10T08:28:48;100026.63;;;21.88;77.72
69214;BME280;56325;47.030;18.518;2023-06-10T08:31:22;100024.13;;;21.98;78.50
69214;BME280;56325;47.030;18.518;2023-06-10T08:33:57;100010.66;;;22.31;77.20
69214;BME280;56325;47.030;18.518;2023-06-10T08:36:33;100015.97;;;22.63;76.71
69214;BME280;56325;47.030;18.518;2023-06-10T08:39:09;100015.78;;;22.81;75.33
69214;BME280;56325;47.030;18.518;2023-06-10T08:41:43;100012.75;;;22.79;74.40
69214;BME280;56325;47.030;18.518;2023-06-10T08:44:26;100011.03;;;22.76;75.78
69214;BME280;56325;47.030;18.518;2023-06-10T08:47:05;100015.38;;;23.06;76.54
69214;BME280;56325;47.030;18.518;2023-06-10T08:49:43;100025.03;;;22.97;75.33
69214;BME280;56325;47.030;18.518;2023-06-10T08:52:20;100020.75;;;22.75;73.97
69214;BME280;56325;47.030;18.518;2023-06-10T08:54:58;100018.34;;;22.58;74.75
69214;BME280;56325;47.030;18.518;2023-06-10T08:57:33;100018.00;;;22.62;75.26
69214;BME280;56325;47.030;18.518;2023-06-10T09:00:10;100018.78;;;22.63;75.36
69214;BME280;56325;47.030;18.518;2023-06-10T09:02:45;100020.22;;;22.56;74.62
69214;BME280;56325;47.030;18.518;2023-06-10T09:05:23;100018.72;;;22.55;73.53
69214;BME280;56325;47.030;18.518;2023-06-10T09:08:00;100016.97;;;22.44;75.21
69214;BME280;56325;47.030;18.518;2023-06-10T09:10:35;100016.13;;;22.15;75.45
69214;BME280;56325;47.030;18.518;2023-06-10T09:13:10;100017.41;;;22.14;76.16
69214;BME280;56325;47.030;18.518;2023-06-10T09:15:45;100013.19;;;22.21;76.48
69214;BME280;56325;47.030;18.518;2023-06-10T09:18:20;100007.19;;;22.38;76.44
69214;BME280;56325;47.030;18.518;2023-06-10T09:20:55;100009.72;;;22.49;77.39
69214;BME280;56325;47.030;18.518;2023-06-10T09:23:31;100001.44;;;22.43;76.16
69214;BME280;56325;47.030;18.518;2023-06-10T09:26:08;100004.69;;;22.55;74.78
69214;BME280;56325;47.030;18.518;2023-06-10T09:28:44;99998.94;;;22.81;77.36
69214;BME280;56325;47.030;18.518;2023-06-10T09:31:19;99992.44;;;23.15;78.05
69214;BME280;56325;47.030;18.518;2023-06-10T09:33:54;100005.66;;;23.43;78.11
69214;BME280;56325;47.030;18.518;2023-06-10T09:36:29;99998.16;;;23.81;76.62
69214;BME280;56325;47.030;18.518;2023-06-10T09:39:14;100002.09;;;23.42;72.39
69214;BME280;56325;47.030;18.518;2023-06-10T09:41:49;100008.72;;;24.11;73.74
69214;BME280;56325;47.030;18.518;2023-06-10T09:44:24;100016.09;;;23.71;70.49
69214;BME280;56325;47.030;18.518;2023-06-10T09:46:58;100004.19;;;23.93;71.35
69214;BME280;56325;47.030;18.518;2023-06-10T09:49:33;100020.91;;;24.29;70.86
69214;BME280;56325;47.030;18.518;2023-06-10T09:52:12;100024.78;;;23.16;72.41
69214;BME280;56325;47.030;18.518;2023-06-10T09:54:47;100022.50;;;22.37;73.83
69214;BME280;56325;47.030;18.518;2023-06-10T09:57:22;100031.03;;;22.52;74.09
69214;BME280;56325;47.030;18.518;2023-06-10T09:59:57;100028.28;;;22.80;73.95
69214;BME280;56325;47.030;18.518;2023-06-10T10:02:31;100017.38;;;22.28;74.29
69214;BME280;56325;47.030;18.518;2023-06-10T10:05:07;100023.81;;;22.02;76.70
69214;BME280;56325;47.030;18.518;2023-06-10T10:07:42;100029.97;;;21.87;79.45
69214;BME280;56325;47.030;18.518;2023-06-10T10:10:20;100028.44;;;21.52;81.47
69214;BME280;56325;47.030;18.518;2023-06-10T10:12:55;100031.56;;;21.48;83.73
69214;BME280;56325;47.030;18.518;2023-06-10T10:15:32;100031.03;;;21.50;83.63
69214;BME280;56325;47.030;18.518;2023-06-10T10:18:11;100034.56;;;21.64;82.16
69214;BME280;56325;47.030;18.518;2023-06-10T10:20:50;100027.50;;;21.83;81.09
69214;BME280;56325;47.030;18.518;2023-06-10T10:23:31;100019.53;;;21.40;83.56
69214;BME280;56325;47.030;18.518;2023-06-10T10:26:10;100019.09;;;21.49;82.10
69214;BME280;56325;47.030;18.518;2023-06-10T10:28:51;100025.06;;;21.67;80.36
69214;BME280;56325;47.030;18.518;2023-06-10T10:31:29;100020.56;;;20.98;85.87
69214;BME280;56325;47.030;18.518;2023-06-10T10:34:07;100019.28;;;21.12;86.03
69214;BME280;56325;47.030;18.518;2023-06-10T10:36:44;100021.03;;;21.28;85.83
69214;BME280;56325;47.030;18.518;2023-06-10T10:39:21;100009.63;;;21.13;86.72
69214;BME280;56325;47.030;18.518;2023-06-10T10:41:58;100011.75;;;21.07;87.14
69214;BME280;56325;47.030;18.518;2023-06-10T10:44:33;100003.16;;;21.05;86.46
69214;BME280;56325;47.030;18.518;2023-06-10T10:47:08;99995.09;;;20.88;85.59
69214;BME280;56325;47.030;18.518;2023-06-10T10:49:43;99994.03;;;21.17;84.79
69214;BME280;56325;47.030;18.518;2023-06-10T10:52:20;99993.69;;;20.94;84.82
69214;BME280;56325;47.030;18.518;2023-06-10T10:54:54;99989.06;;;21.10;82.72
69214;BME280;56325;47.030;18.518;2023-06-10T10:57:30;99997.78;;;20.93;83.78
69214;BME280;56325;47.030;18.518;2023-06-10T11:00:07;99990.69;;;21.06;82.52
69214;BME280;56325;47.030;18.518;2023-06-10T11:02:45;99994.88;;;20.99;82.90
69214;BME280;56325;47.030;18.518;2023-06-10T11:05:35;99999.50;;;21.49;82.33
69214;BME280;56325;47.030;18.518;2023-06-10T11:08:11;99994.22;;;21.59;81.37
69214;BME280;56325;47.030;18.518;2023-06-10T11:10:51;99982.00;;;21.70;80.59
69214;BME280;56325;47.030;18.518;2023-06-10T11:13:27;99985.19;;;21.87;80.00
69214;BME280;56325;47.030;18.518;2023-06-10T11:16:04;99984.34;;;21.79;79.41
69214;BME280;56325;47.030;18.518;2023-06-10T11:18:39;99979.66;;;21.95;79.82
69214;BME280;56325;47.030;18.518;2023-06-10T11:21:16;99974.66;;;22.14;78.78
69214;BME280;56325;47.030;18.518;2023-06-10T11:23:51;99979.84;;;22.51;75.47
69214;BME280;56325;47.030;18.518;2023-06-10T11:26:35;99972.28;;;22.67;74.28
69214;BME280;56325;47.030;18.518;2023-06-10T11:29:11;99981.91;;;22.51;75.63
69214;BME280;56325;47.030;18.518;2023-06-10T11:31:51;99969.69;;;22.69;73.31
69214;BME280;56325;47.030;18.518;2023-06-10T11:34:29;99975.31;;;22.98;72.54
69214;BME280;56325;47.030;18.518;2023-06-10T11:37:04;99964.13;;;23.49;71.97
69214;BME280;56325;47.030;18.518;2023-06-10T11:39:39;99967.66;;;23.34;69.28
69214;BME280;56325;47.030;18.518;2023-06-10T11:42:16;99968.53;;;23.65;69.40
69214;BME280;56325;47.030;18.518;2023-06-10T11:44:54;99949.47;;;23.71;68.71
69214;BME280;56325;47.030;18.518;2023-06-10T11:47:28;99942.63;;;24.48;69.31
69214;BME280;56325;47.030;18.518;2023-06-10T11:50:03;99940.94;;;24.53;65.39
69214;BME280;56325;47.030;18.518;2023-06-10T11:52:38;99941.50;;;24.44;64.76
69214;BME280;56325;47.030;18.518;2023-06-10T11:55:14;99936.06;;;24.54;64.34
69214;BME280;56325;47.030;18.518;2023-06-10T11:57:49;99931.63;;;25.13;65.28
69214;BME280;56325;47.030;18.518;2023-06-10T12:00:32;99930.66;;;25.59;64.56
69214;BME280;56325;47.030;18.518;2023-06-10T12:03:07;99928.94;;;25.63;62.58
69214;BME280;56325;47.030;18.518;2023-06-10T12:05:56;99930.72;;;24.96;63.48
69214;BME280;56325;47.030;18.518;2023-06-10T12:08:32;99930.53;;;24.94;63.70
69214;BME280;56325;47.030;18.518;2023-06-10T12:11:09;99937.34;;;24.68;65.50
69214;BME280;56325;47.030;18.518;2023-06-10T12:13:46;99928.00;;;24.27;65.76
69214;BME280;56325;47.030;18.518;2023-06-10T12:16:23;99922.38;;;24.27;65.54
69214;BME280;56325;47.030;18.518;2023-06-10T12:19:02;99925.50;;;24.92;66.57
69214;BME280;56325;47.030;18.518;2023-06-10T12:21:37;99925.09;;;24.96;64.50
69214;BME280;56325;47.030;18.518;2023-06-10T12:24:12;99927.25;;;24.57;64.95
69214;BME280;56325;47.030;18.518;2023-06-10T12:26:47;99929.88;;;24.47;67.34
69214;BME280;56325;47.030;18.518;2023-06-10T12:29:23;99923.69;;;24.34;64.29
69214;BME280;56325;47.030;18.518;2023-06-10T12:32:01;99920.88;;;24.03;64.33
69214;BME280;56325;47.030;18.518;2023-06-10T12:34:37;99917.63;;;23.69;66.06
69214;BME280;56325;47.030;18.518;2023-06-10T12:37:13;99916.00;;;23.96;66.21
69214;BME280;56325;47.030;18.518;2023-06-10T12:39:51;99915.06;;;24.09;66.41
69214;BME280;56325;47.030;18.518;2023-06-10T12:42:27;99919.00;;;23.91;64.33
69214;BME280;56325;47.030;18.518;2023-06-10T12:45:03;99914.69;;;24.05;64.63
69214;BME280;56325;47.030;18.518;2023-06-10T12:47:42;99922.56;;;24.14;63.46
69214;BME280;56325;47.030;18.518;2023-06-10T12:50:18;99919.19;;;24.23;63.19
69214;BME280;56325;47.030;18.518;2023-06-10T12:52:52;99908.94;;;24.26;64.35
69214;BME280;56325;47.030;18.518;2023-06-10T12:55:27;99899.53;;;24.15;63.74
69214;BME280;56325;47.030;18.518;2023-06-10T12:58:02;99901.03;;;23.94;62.61
69214;BME280;56325;47.030;18.518;2023-06-10T13:00:37;99892.22;;;23.97;62.70
69214;BME280;56325;47.030;18.518;2023-06-10T13:03:13;99893.72;;;24.13;63.19
69214;BME280;56325;47.030;18.518;2023-06-10T13:05:48;99892.78;;;24.03;62.57
69214;BME280;56325;47.030;18.518;2023-06-10T13:08:22;99883.97;;;24.30;62.69
69214;BME280;56325;47.030;18.518;2023-06-10T13:10:58;99888.09;;;24.44;62.85
69214;BME280;56325;47.030;18.518;2023-06-10T13:13:32;99877.44;;;24.19;59.73
69214;BME280;56325;47.030;18.518;2023-06-10T13:16:07;99881.00;;;24.20;60.58
69214;BME280;56325;47.030;18.518;2023-06-10T13:18:43;99870.09;;;24.47;61.09
69214;BME280;56325;47.030;18.518;2023-06-10T13:21:17;99871.56;;;24.63;61.31
69214;BME280;56325;47.030;18.518;2023-06-10T13:23:52;99873.47;;;24.53;60.31
69214;BME280;56325;47.030;18.518;2023-06-10T13:26:27;99869.00;;;24.19;62.29
69214;BME280;56325;47.030;18.518;2023-06-10T13:29:01;99861.91;;;24.26;62.82
69214;BME280;56325;47.030;18.518;2023-06-10T13:31:36;99879.31;;;23.94;62.98
69214;BME280;56325;47.030;18.518;2023-06-10T13:34:12;99877.06;;;23.85;63.24
69214;BME280;56325;47.030;18.518;2023-06-10T13:36:46;99873.09;;;23.80;64.66
69214;BME280;56325;47.030;18.518;2023-06-10T14:04:44;99846.44;;;24.65;63.90
69214;BME280;56325;47.030;18.518;2023-06-10T14:07:19;99846.44;;;24.65;63.90
69214;BME280;56325;47.030;18.518;2023-06-10T14:09:53;99847.94;;;24.66;63.84
69214;BME280;56325;47.030;18.518;2023-06-10T14:12:28;99850.38;;;25.17;62.86
69214;BME280;56325;47.030;18.518;2023-06-10T14:15:03;99847.78;;;25.44;59.18
69214;BME280;56325;47.030;18.518;2023-06-10T14:17:38;99847.03;;;26.19;58.06
69214;BME280;56325;47.030;18.518;2023-06-10T14:20:14;99851.06;;;26.33;57.61
69214;BME280;56325;47.030;18.518;2023-06-10T14:22:48;99838.31;;;26.66;58.73
69214;BME280;56325;47.030;18.518;2023-06-10T14:25:23;99842.63;;;26.67;56.24
69214;BME280;56325;47.030;18.518;2023-06-10T14:27:58;99843.78;;;26.82;57.11
69214;BME280;56325;47.030;18.518;2023-06-10T14:30:32;99834.66;;;27.18;57.65
69214;BME280;56325;47.030;18.518;2023-06-10T14:33:07;99833.91;;;26.56;55.45
69214;BME280;56325;47.030;18.518;2023-06-10T14:35:43;99840.31;;;26.14;56.75
69214;BME280;56325;47.030;18.518;2023-06-10T14:38:18;99834.75;;;26.06;56.14
69214;BME280;56325;47.030;18.518;2023-06-10T14:40:52;99836.41;;;26.09;57.38
69214;BME280;56325;47.030;18.518;2023-06-10T14:43:27;99834.50;;;25.95;57.67
69214;BME280;56325;47.030;18.518;2023-06-10T14:46:01;99834.34;;;25.93;58.81